In Rescue
 
Open Full Screen Window  High Contrast Mode
Wind Gusting 00 knots
03
November 20, 2018 1:12 AM EST
Weather Information
Wind Direction
  310 °
Wind Speed
  03 kt (3 mph)
Wind Gust
  00 kt (0 mph)
Altimeter
30.03 in
Visibility
10 SM
Temperature
02° C
36° F
Dewpoint
00° C
32° F
Humidity
87%
1hr Rain Fall
00.00 in.
24hr Rain Fall
00.20 in.
Sky Condition
Overcast @ 6,500 ft
Scattered @ 2,200 ft
Scattered @ 1,400 ft
VFR

METAR KMRT 200612Z AUTO 31003KT 10SM SCT014 SCT022 OVC065 02/00 A3003 RMK AO2 T00180000

FAA Disclaimer: The data displayed is for advisory purposes only and is not to be used for flight planning or operations.